createdAt,value
2022-12-22T16:41:48.022Z,3.00
2022-12-22T16:43:51.091Z,2.94
2022-12-22T16:45:27.373Z,2.87
2022-12-22T16:47:01.492Z,2.80
2022-12-22T16:48:39.781Z,2.78
2022-12-22T16:50:19.487Z,2.76
2022-12-22T16:51:54.555Z,2.75
2022-12-22T16:53:28.733Z,2.70
2022-12-22T16:55:02.828Z,2.65
2022-12-22T16:56:36.100Z,2.62
2022-12-22T16:58:13.956Z,2.64
2022-12-22T16:59:48.572Z,2.66
2022-12-22T17:01:30.575Z,2.67
2022-12-22T17:03:08.430Z,2.67
2022-12-22T17:04:41.927Z,2.68
2022-12-22T17:06:15.226Z,2.65
2022-12-22T17:07:48.819Z,2.65
2022-12-22T17:09:25.069Z,2.64
2022-12-22T17:11:08.228Z,2.61
2022-12-22T17:12:45.272Z,2.56
2022-12-22T17:14:28.502Z,2.57
2022-12-22T17:16:01.856Z,2.57
2022-12-22T17:17:38.588Z,2.54
2022-12-22T17:19:16.226Z,2.44
2022-12-22T17:20:52.738Z,2.49
2022-12-22T17:22:29.207Z,2.43
2022-12-22T17:24:04.932Z,2.36
2022-12-22T17:25:38.180Z,2.35
2022-12-22T17:27:14.433Z,2.33
2022-12-22T17:28:48.477Z,2.32
2022-12-22T17:30:24.529Z,2.25
2022-12-22T17:31:59.005Z,2.20
2022-12-22T17:33:32.533Z,2.12
2022-12-22T17:35:06.644Z,2.16
2022-12-22T17:36:40.263Z,2.18
2022-12-22T17:38:15.473Z,2.17
2022-12-22T17:39:51.249Z,2.16
2022-12-22T17:41:24.512Z,2.14
2022-12-22T17:42:59.946Z,2.07
2022-12-22T17:44:36.642Z,2.04
2022-12-22T17:46:16.167Z,1.97
2022-12-22T17:47:49.372Z,1.92
2022-12-22T17:49:22.837Z,1.89
2022-12-22T17:50:56.278Z,1.85
2022-12-22T17:52:29.521Z,1.81
2022-12-22T17:54:02.935Z,1.82
2022-12-22T17:57:32.130Z,1.86
2022-12-22T17:59:05.450Z,1.85
2022-12-22T18:00:38.685Z,1.79
2022-12-22T18:02:18.455Z,1.86
2022-12-22T18:03:52.203Z,1.85
2022-12-22T18:05:27.610Z,1.87
2022-12-22T18:07:00.857Z,1.86
2022-12-22T18:08:34.452Z,1.86
2022-12-22T18:10:09.265Z,1.84
2022-12-22T18:11:46.055Z,1.83
2022-12-22T18:13:22.679Z,1.83
2022-12-22T18:14:55.813Z,1.83
2022-12-22T18:16:29.397Z,1.81
2022-12-22T18:18:04.021Z,1.76
2022-12-22T18:19:37.126Z,1.73
2022-12-22T18:21:16.337Z,1.71
2022-12-22T18:22:52.282Z,1.66
2022-12-22T18:24:25.752Z,1.66
2022-12-22T18:25:59.221Z,1.62
2022-12-22T18:27:32.469Z,1.62
2022-12-22T18:29:06.852Z,1.62
2022-12-22T18:30:40.220Z,1.60
2022-12-22T18:32:17.283Z,1.59
2022-12-22T18:33:55.373Z,1.59
2022-12-22T18:35:29.195Z,1.58
2022-12-22T18:37:03.132Z,1.57
2022-12-22T18:38:36.815Z,1.58
2022-12-22T18:40:28.213Z,1.52
2022-12-22T18:42:02.111Z,1.57
2022-12-22T18:43:35.300Z,1.54
2022-12-22T18:45:15.033Z,1.50
2022-12-22T18:46:49.021Z,1.54
2022-12-22T18:48:22.654Z,1.53
2022-12-22T18:49:58.096Z,1.52
2022-12-22T18:51:31.668Z,1.50
2022-12-22T18:53:13.553Z,1.48
2022-12-22T18:54:48.688Z,1.45
2022-12-22T18:56:22.098Z,1.41
2022-12-22T18:57:57.251Z,1.33
2022-12-22T18:59:32.666Z,1.30
2022-12-22T19:01:06.465Z,1.28
2022-12-22T19:02:39.840Z,1.29
2022-12-22T19:04:14.742Z,1.31
2022-12-22T19:05:49.794Z,1.36
2022-12-22T19:07:25.005Z,1.36
2022-12-22T19:08:58.448Z,1.36
2022-12-22T19:10:39.105Z,1.31
2022-12-22T19:12:15.020Z,1.35
2022-12-22T19:13:51.219Z,1.31
2022-12-22T19:15:29.113Z,1.32
2022-12-22T19:17:02.463Z,1.27
2022-12-22T19:18:35.630Z,1.23
2022-12-22T19:20:16.114Z,1.22
2022-12-22T19:21:50.666Z,1.19
2022-12-22T19:23:26.096Z,1.15
2022-12-22T19:24:59.257Z,1.17
2022-12-22T19:26:32.551Z,1.12
2022-12-22T19:28:08.845Z,1.18
2022-12-22T19:29:42.073Z,1.17
2022-12-22T19:31:22.629Z,1.16
2022-12-22T19:33:01.558Z,1.19
2022-12-22T19:34:34.840Z,1.19
2022-12-22T19:36:09.154Z,1.18
2022-12-22T19:37:43.823Z,1.16
2022-12-22T19:39:17.151Z,1.17
2022-12-22T19:40:52.079Z,1.15
2022-12-22T19:42:26.923Z,1.15
2022-12-22T19:44:00.156Z,1.15
2022-12-22T19:45:35.913Z,1.14
2022-12-22T19:47:17.027Z,1.15
2022-12-22T19:48:50.260Z,1.12
2022-12-22T19:50:25.408Z,1.08
2022-12-22T19:51:58.932Z,1.12
2022-12-22T19:53:33.464Z,1.08
2022-12-22T19:55:07.168Z,1.09
2022-12-22T19:56:42.259Z,1.02
2022-12-22T19:58:19.453Z,1.04
2022-12-22T19:59:55.097Z,1.02
2022-12-22T20:01:28.517Z,1.01
2022-12-22T20:03:01.885Z,0.97
2022-12-22T20:04:35.124Z,0.97
2022-12-22T20:06:09.086Z,0.95
2022-12-22T20:07:42.295Z,0.93
2022-12-22T20:09:16.917Z,0.95
2022-12-22T20:10:56.293Z,0.86
2022-12-22T20:12:34.395Z,0.73
2022-12-22T20:14:07.563Z,0.65
2022-12-22T20:15:41.499Z,0.76
2022-12-22T20:17:14.608Z,0.78
2022-12-22T20:18:48.799Z,0.77
2022-12-22T20:20:24.650Z,0.75
2022-12-22T20:21:57.843Z,0.75
2022-12-22T20:23:33.150Z,0.73
2022-12-22T20:25:11.168Z,0.71
2022-12-22T20:26:50.153Z,0.69
2022-12-22T20:28:28.624Z,0.67
2022-12-22T20:30:02.226Z,0.64
2022-12-22T20:31:35.535Z,0.62
2022-12-22T20:33:09.109Z,0.63
2022-12-22T20:34:42.780Z,0.68
2022-12-22T20:36:21.281Z,0.70
2022-12-22T20:37:54.413Z,0.66
2022-12-22T20:39:27.633Z,0.68
2022-12-22T20:41:03.670Z,0.63
2022-12-22T20:42:36.824Z,0.56
2022-12-22T20:44:09.997Z,0.52
2022-12-22T20:45:44.851Z,0.47
2022-12-22T20:47:22.382Z,0.46
2022-12-22T20:48:57.525Z,0.47
2022-12-22T20:50:33.961Z,0.45
2022-12-22T20:52:07.188Z,0.44
2022-12-22T20:53:40.375Z,0.46
2022-12-22T20:55:15.093Z,0.44
2022-12-22T20:56:49.733Z,0.42
2022-12-22T20:58:25.756Z,0.44
2022-12-22T20:59:58.875Z,0.45
2022-12-22T21:01:32.131Z,0.44
2022-12-22T21:03:05.442Z,0.41
2022-12-22T21:04:38.726Z,0.41
2022-12-22T21:06:27.199Z,0.39
2022-12-22T21:08:00.400Z,0.39
2022-12-22T21:09:33.595Z,0.36
2022-12-22T21:11:06.875Z,0.32
2022-12-22T21:12:41.400Z,0.30
2022-12-22T21:14:15.135Z,0.27
2022-12-22T21:15:51.333Z,0.25
2022-12-22T21:17:24.541Z,0.22
2022-12-22T21:18:57.617Z,0.26
2022-12-22T21:20:32.832Z,0.24
2022-12-22T21:22:06.338Z,0.30
2022-12-22T21:23:39.648Z,0.30
2022-12-22T21:25:12.913Z,0.31
2022-12-22T21:26:49.106Z,0.31
2022-12-22T21:28:33.745Z,0.31
2022-12-22T21:30:15.639Z,0.29
2022-12-22T21:31:48.959Z,0.31
2022-12-22T21:33:23.524Z,0.29
2022-12-22T21:35:01.220Z,0.28
2022-12-22T21:36:37.525Z,0.27
2022-12-22T21:38:18.141Z,0.25
2022-12-22T21:39:51.415Z,0.28
2022-12-22T21:41:44.893Z,0.26
2022-12-22T21:43:18.331Z,0.24
2022-12-22T21:44:52.844Z,0.23
2022-12-22T21:46:26.242Z,0.23
2022-12-22T21:48:02.230Z,0.18
2022-12-22T21:49:35.387Z,0.15
2022-12-22T21:51:08.527Z,0.16
2022-12-22T21:52:49.951Z,0.16
2022-12-22T21:54:25.193Z,0.15
2022-12-22T21:55:58.345Z,0.15
2022-12-22T21:57:31.491Z,0.15
2022-12-22T21:59:04.740Z,0.19
2022-12-22T22:00:42.366Z,0.20
2022-12-22T22:02:17.356Z,0.20
2022-12-22T22:03:50.661Z,0.22
2022-12-22T22:05:27.681Z,0.21
2022-12-22T22:07:00.807Z,0.20
2022-12-22T22:08:34.282Z,0.17
2022-12-22T22:10:07.457Z,0.14
2022-12-22T22:11:54.688Z,0.05
2022-12-22T22:13:27.820Z,0.03
2022-12-22T22:15:00.959Z,-0.03
2022-12-22T22:16:35.481Z,-0.09
2022-12-22T22:18:08.710Z,-0.15
2022-12-22T22:19:41.856Z,-0.28
2022-12-22T22:21:16.667Z,-0.27
2022-12-22T22:22:51.266Z,-0.32
2022-12-22T22:24:24.365Z,-0.35
2022-12-22T22:26:01.011Z,-0.34
2022-12-22T22:27:34.204Z,-0.34
2022-12-22T22:29:07.516Z,-0.31
2022-12-22T22:30:43.060Z,-0.30
2022-12-22T22:32:18.145Z,-0.28
2022-12-22T22:33:51.359Z,-0.25
2022-12-22T22:35:25.729Z,-0.26
2022-12-22T22:36:58.908Z,-0.22
2022-12-22T22:38:32.018Z,-0.16
2022-12-22T22:40:06.026Z,-0.17
2022-12-22T22:41:43.196Z,-0.16
2022-12-22T22:43:16.841Z,-0.20
2022-12-22T22:44:49.945Z,-0.16
2022-12-22T22:46:23.236Z,-0.25
2022-12-22T22:47:57.873Z,-0.24
2022-12-22T22:49:31.104Z,-0.26
2022-12-22T22:51:04.193Z,-0.27
2022-12-22T22:52:38.175Z,-0.32
2022-12-22T22:54:13.156Z,-0.35
2022-12-22T22:55:46.442Z,-0.48
2022-12-22T22:57:20.483Z,-0.44
2022-12-22T22:58:52.649Z,-0.45
2022-12-22T23:00:25.935Z,-0.43
2022-12-22T23:01:59.173Z,-0.42
2022-12-22T23:03:33.856Z,-0.38
2022-12-22T23:05:07.989Z,-0.37
2022-12-22T23:06:42.483Z,-0.35
2022-12-22T23:08:15.574Z,-0.32
2022-12-22T23:09:48.720Z,-0.28
2022-12-22T23:11:21.103Z,-0.27
2022-12-22T23:12:54.308Z,-0.27
2022-12-22T23:14:27.829Z,-0.36
2022-12-22T23:16:03.190Z,-0.28
2022-12-22T23:17:36.347Z,-0.25
2022-12-22T23:19:10.968Z,-0.23
2022-12-22T23:20:45.719Z,-0.17
2022-12-22T23:22:17.908Z,-0.15
2022-12-22T23:23:55.905Z,-0.19
2022-12-22T23:25:29.140Z,-0.14
2022-12-22T23:27:02.509Z,-0.11
2022-12-22T23:28:34.736Z,-0.10
2022-12-22T23:30:09.926Z,-0.05
2022-12-22T23:31:42.146Z,-0.01
2022-12-22T23:33:15.399Z,-0.12
2022-12-22T23:34:50.537Z,-0.01
2022-12-22T23:36:23.692Z,0.07
2022-12-22T23:37:55.897Z,0.08
2022-12-22T23:39:29.137Z,0.14
2022-12-22T23:41:06.897Z,0.19
2022-12-22T23:42:40.022Z,0.21
2022-12-22T23:44:13.132Z,0.20
2022-12-22T23:45:46.197Z,0.22
2022-12-22T23:47:19.310Z,0.26
2022-12-22T23:48:52.502Z,0.26
2022-12-22T23:50:27.942Z,0.33
2022-12-22T23:52:01.204Z,0.32
2022-12-22T23:53:34.472Z,0.32
2022-12-22T23:55:08.431Z,0.33
2022-12-22T23:56:41.785Z,0.34
2022-12-22T23:58:14.110Z,0.35
2022-12-22T23:59:47.321Z,0.40
